createdAt,value
2023-03-17T00:00:07.417Z,101072.78
2023-03-17T00:00:26.010Z,101065.81
2023-03-17T00:00:42.948Z,101072.91
2023-03-17T00:01:03.560Z,101069.44
2023-03-17T00:01:17.917Z,101069.44
2023-03-17T00:01:30.770Z,101072.91
2023-03-17T00:01:46.854Z,101070.25
2023-03-17T00:01:59.522Z,101074.72
2023-03-17T00:02:12.664Z,101069.44
2023-03-17T00:02:27.088Z,101068.59
2023-03-17T00:02:42.955Z,101072.06
2023-03-17T00:02:55.238Z,101074.72
2023-03-17T00:03:07.894Z,101075.53
2023-03-17T00:03:23.919Z,101063.31
2023-03-17T00:03:39.993Z,101072.06
2023-03-17T00:03:53.041Z,101074.81
2023-03-17T00:04:07.040Z,101067.72
2023-03-17T00:04:20.227Z,101073.97
2023-03-17T00:04:32.983Z,101067.88
2023-03-17T00:04:45.979Z,101073.97
2023-03-17T00:04:58.675Z,101076.50
2023-03-17T00:05:26.810Z,101082.72
2023-03-17T00:05:39.377Z,101071.34
2023-03-17T00:05:53.665Z,101076.63
2023-03-17T00:06:11.992Z,101073.00
2023-03-17T00:06:29.455Z,101080.91
2023-03-17T00:06:42.470Z,101071.22
2023-03-17T00:06:56.018Z,101069.44
2023-03-17T00:07:15.107Z,101073.88
2023-03-17T00:07:27.692Z,101074.72
2023-03-17T00:07:40.928Z,101075.53
2023-03-17T00:07:54.772Z,101077.22
2023-03-17T00:08:13.092Z,101063.44
2023-03-17T00:08:28.398Z,101072.91
2023-03-17T00:08:41.982Z,101071.09
2023-03-17T00:08:54.817Z,101076.38
2023-03-17T00:09:11.650Z,101070.25
2023-03-17T00:09:24.530Z,101078.19
2023-03-17T00:09:39.707Z,101070.38
2023-03-17T00:09:53.345Z,101070.25
2023-03-17T00:10:11.174Z,101070.50
2023-03-17T00:10:26.104Z,101068.59
2023-03-17T00:10:39.846Z,101071.22
2023-03-17T00:10:53.553Z,101073.00
2023-03-17T00:11:10.945Z,101073.00
2023-03-17T00:11:26.043Z,101068.59
2023-03-17T00:11:41.021Z,101071.22
2023-03-17T00:11:56.829Z,101073.88
2023-03-17T00:12:11.472Z,101075.66
2023-03-17T00:12:27.639Z,101071.22
2023-03-17T00:12:40.913Z,101069.44
2023-03-17T00:12:54.824Z,101069.53
2023-03-17T00:13:07.129Z,101073.00
2023-03-17T00:13:19.630Z,101066.91
2023-03-17T00:13:33.258Z,101066.06
2023-03-17T00:13:46.039Z,101066.19
2023-03-17T00:14:00.030Z,101075.78
2023-03-17T00:14:15.216Z,101070.50
2023-03-17T00:14:30.626Z,101065.59
2023-03-17T00:14:46.176Z,101075.06
2023-03-17T00:15:00.518Z,101072.44
2023-03-17T00:15:13.239Z,101074.34
2023-03-17T00:15:29.039Z,101073.63
2023-03-17T00:15:52.932Z,101073.50
2023-03-17T00:16:15.744Z,101069.16
2023-03-17T00:16:30.124Z,101066.69
2023-03-17T00:16:47.126Z,101066.53
2023-03-17T00:17:02.526Z,101069.31
2023-03-17T00:17:17.598Z,101063.53
2023-03-17T00:17:31.428Z,101066.78
2023-03-17T00:17:45.590Z,101069.41
2023-03-17T00:17:58.480Z,101073.13
2023-03-17T00:18:14.152Z,101068.59
2023-03-17T00:18:28.709Z,101066.88
2023-03-17T00:18:41.918Z,101069.53
2023-03-17T00:18:55.928Z,101065.13
2023-03-17T00:19:14.069Z,101072.88
2023-03-17T00:19:30.695Z,101063.53
2023-03-17T00:19:46.402Z,101068.59
2023-03-17T00:20:05.650Z,101070.38
2023-03-17T00:20:25.544Z,101071.22
2023-03-17T00:20:38.935Z,101067.84
2023-03-17T00:20:52.634Z,101069.66
2023-03-17T00:21:15.833Z,101068.81
2023-03-17T00:21:36.671Z,101068.81
2023-03-17T00:21:50.528Z,101067.13
2023-03-17T00:22:13.203Z,101065.56
2023-03-17T00:22:25.812Z,101065.56
2023-03-17T00:22:38.259Z,101060.31
2023-03-17T00:22:51.883Z,101064.75
2023-03-17T00:23:03.885Z,101063.06
2023-03-17T00:23:21.642Z,101059.56
2023-03-17T00:23:34.449Z,101064.03
2023-03-17T00:23:50.191Z,101065.78
2023-03-17T00:24:04.125Z,101065.94
2023-03-17T00:24:19.874Z,101064.22
2023-03-17T00:24:34.493Z,101060.66
2023-03-17T00:24:51.179Z,101060.66
2023-03-17T00:25:04.899Z,101062.56
2023-03-17T00:25:29.785Z,101058.25
2023-03-17T00:25:43.149Z,101065.22
2023-03-17T00:25:57.446Z,101064.22
2023-03-17T00:26:16.164Z,101067.84
2023-03-17T00:26:32.733Z,101065.22
2023-03-17T00:26:46.187Z,101062.69
2023-03-17T00:27:03.897Z,101058.38
2023-03-17T00:27:21.166Z,101064.47
2023-03-17T00:27:34.492Z,101061.84
2023-03-17T00:27:49.935Z,101064.59
2023-03-17T00:28:04.835Z,101064.38
2023-03-17T00:28:21.160Z,101061.84
2023-03-17T00:28:34.816Z,101064.59
2023-03-17T00:28:50.813Z,101061.00
2023-03-17T00:29:04.136Z,101058.47
2023-03-17T00:29:17.825Z,101061.13
2023-03-17T00:29:33.097Z,101062.09
2023-03-17T00:29:46.551Z,101064.00
2023-03-17T00:30:01.985Z,101068.19
2023-03-17T00:30:19.835Z,101062.09
2023-03-17T00:30:35.607Z,101060.41
2023-03-17T00:30:54.205Z,101058.59
2023-03-17T00:31:16.618Z,101055.25
2023-03-17T00:31:35.008Z,101057.91
2023-03-17T00:31:48.646Z,101060.41
2023-03-17T00:32:01.373Z,101060.41
2023-03-17T00:32:18.960Z,101061.22
2023-03-17T00:32:32.174Z,101055.13
2023-03-17T00:32:48.222Z,101055.25
2023-03-17T00:33:30.081Z,101056.09
2023-03-17T00:33:43.502Z,101058.72
2023-03-17T00:33:57.176Z,101054.28
2023-03-17T00:34:17.717Z,101058.84
2023-03-17T00:34:34.208Z,101058.00
2023-03-17T00:34:49.713Z,101062.31
2023-03-17T00:35:05.960Z,101063.28
2023-03-17T00:35:25.050Z,101060.63
2023-03-17T00:35:42.966Z,101054.53
2023-03-17T00:35:57.342Z,101055.47
2023-03-17T00:36:16.066Z,101054.63
2023-03-17T00:36:33.545Z,101053.81
2023-03-17T00:36:52.558Z,101052.00
2023-03-17T00:37:11.999Z,101054.63
2023-03-17T00:37:25.963Z,101058.25
2023-03-17T00:37:38.788Z,101054.75
2023-03-17T00:37:57.256Z,101057.38
2023-03-17T00:38:15.620Z,101057.38
2023-03-17T00:38:31.018Z,101050.44
2023-03-17T00:38:44.285Z,101052.47
2023-03-17T00:39:00.003Z,101057.63
2023-03-17T00:39:25.936Z,101050.56
2023-03-17T00:39:42.411Z,101050.56
2023-03-17T00:39:55.969Z,101055.81
2023-03-17T00:40:16.055Z,101048.88
2023-03-17T00:40:31.239Z,101048.03
2023-03-17T00:41:00.348Z,101052.34
2023-03-17T00:41:14.576Z,101054.25
2023-03-17T00:41:30.055Z,101051.53
2023-03-17T00:42:03.789Z,101048.16
2023-03-17T00:42:18.956Z,101055.09
2023-03-17T00:42:31.493Z,101052.47
2023-03-17T00:42:44.134Z,101054.25
2023-03-17T00:43:00.315Z,101049.81
2023-03-17T00:43:14.704Z,101054.25
2023-03-17T00:43:30.400Z,101060.25
2023-03-17T00:43:42.994Z,101055.09
2023-03-17T00:43:55.914Z,101051.63
2023-03-17T00:44:12.836Z,101052.47
2023-03-17T00:44:26.986Z,101055.09
2023-03-17T00:44:45.489Z,101055.94
2023-03-17T00:44:57.957Z,101055.09
2023-03-17T00:45:11.332Z,101049.81
2023-03-17T00:45:26.063Z,101052.47
2023-03-17T00:45:40.008Z,101053.44
2023-03-17T00:45:52.740Z,101055.09
2023-03-17T00:46:12.347Z,101055.94
2023-03-17T00:46:27.215Z,101049.81
2023-03-17T00:46:43.885Z,101053.28
2023-03-17T00:46:59.206Z,101050.81
2023-03-17T00:47:15.896Z,101054.16
2023-03-17T00:47:30.035Z,101053.28
2023-03-17T00:47:43.736Z,101048.88
2023-03-17T00:47:56.513Z,101054.88
2023-03-17T00:48:15.078Z,101047.91
2023-03-17T00:48:30.198Z,101049.81
2023-03-17T00:48:46.724Z,101050.66
2023-03-17T00:48:59.485Z,101047.19
2023-03-17T00:49:21.440Z,101057.72
2023-03-17T00:49:37.846Z,101051.53
2023-03-17T00:49:52.505Z,101048.03
2023-03-17T00:50:17.342Z,101041.09
2023-03-17T00:50:32.593Z,101047.31
2023-03-17T00:50:49.468Z,101046.47
2023-03-17T00:51:05.394Z,101049.00
2023-03-17T00:51:19.829Z,101043.81
2023-03-17T00:51:33.924Z,101043.81
2023-03-17T00:51:47.758Z,101046.47
2023-03-17T00:52:04.030Z,101043.00
2023-03-17T00:52:17.237Z,101043.00
2023-03-17T00:52:30.533Z,101044.69
2023-03-17T00:52:45.155Z,101049.09
2023-03-17T00:53:01.663Z,101041.44
2023-03-17T00:53:21.502Z,101048.25
2023-03-17T00:53:38.161Z,101047.44
2023-03-17T00:53:52.718Z,101048.38
2023-03-17T00:54:05.852Z,101047.44
2023-03-17T00:54:19.089Z,101048.38
2023-03-17T00:54:33.041Z,101049.25
2023-03-17T00:54:46.051Z,101044.06
2023-03-17T00:54:58.648Z,101043.09
2023-03-17T00:55:17.511Z,101046.59
2023-03-17T00:55:29.835Z,101040.47
2023-03-17T00:55:43.687Z,101047.53
2023-03-17T00:55:56.256Z,101045.03
2023-03-17T00:56:13.048Z,101040.59
2023-03-17T00:56:27.912Z,101045.03
2023-03-17T00:56:42.336Z,101040.72
2023-03-17T00:56:56.865Z,101045.03
2023-03-17T00:57:11.430Z,101043.34
2023-03-17T00:57:24.772Z,101039.78
2023-03-17T00:57:39.940Z,101045.16
2023-03-17T00:57:52.872Z,101043.44
2023-03-17T00:58:13.191Z,101043.34
2023-03-17T00:58:33.315Z,101041.69
2023-03-17T00:58:48.860Z,101048.63
2023-03-17T00:59:01.142Z,101038.06
2023-03-17T00:59:20.592Z,101039.88
2023-03-17T00:59:38.596Z,101044.31
2023-03-17T01:00:00.442Z,101046.09
2023-03-17T01:00:21.067Z,101036.50
2023-03-17T01:00:35.155Z,101036.75
2023-03-17T01:00:49.037Z,101047.06
2023-03-17T01:01:02.927Z,101038.31
2023-03-17T01:01:16.901Z,101037.50
2023-03-17T01:01:30.116Z,101045.25
2023-03-17T01:01:48.370Z,101043.59
2023-03-17T01:02:02.690Z,101040.13
2023-03-17T01:02:15.981Z,101040.94
2023-03-17T01:02:31.932Z,101048.84
2023-03-17T01:02:46.780Z,101053.16
2023-03-17T01:03:00.177Z,101035.78
2023-03-17T01:03:13.108Z,101042.75
2023-03-17T01:03:25.823Z,101044.53
2023-03-17T01:03:39.017Z,101045.41
2023-03-17T01:03:52.260Z,101050.66
2023-03-17T01:04:05.379Z,101042.75
2023-03-17T01:04:18.556Z,101043.69
2023-03-17T01:04:32.779Z,101038.53
2023-03-17T01:04:49.921Z,101045.41
2023-03-17T01:05:07.059Z,101045.41
2023-03-17T01:05:22.135Z,101046.22
2023-03-17T01:05:37.382Z,101046.22
2023-03-17T01:05:50.950Z,101039.16
2023-03-17T01:06:06.657Z,101047.06
2023-03-17T01:06:24.713Z,101046.94
2023-03-17T01:06:37.717Z,101045.25
2023-03-17T01:06:51.991Z,101043.44
2023-03-17T01:07:06.724Z,101037.34
2023-03-17T01:07:19.725Z,101045.25
2023-03-17T01:07:33.212Z,101044.41
2023-03-17T01:07:47.861Z,101042.63
2023-03-17T01:08:01.633Z,101042.63
2023-03-17T01:08:14.583Z,101042.63
2023-03-17T01:08:28.566Z,101037.34
2023-03-17T01:08:41.013Z,101039.16
2023-03-17T01:08:55.781Z,101039.03
2023-03-17T01:09:15.350Z,101043.44
2023-03-17T01:09:30.013Z,101042.63
2023-03-17T01:09:43.462Z,101043.44
2023-03-17T01:09:55.917Z,101041.78
2023-03-17T01:10:13.976Z,101043.44
2023-03-17T01:10:28.774Z,101044.31
2023-03-17T01:10:41.235Z,101045.25
2023-03-17T01:10:56.857Z,101048.72
2023-03-17T01:11:15.601Z,101045.25
2023-03-17T01:11:28.049Z,101047.88
2023-03-17T01:11:40.916Z,101050.53
2023-03-17T01:11:54.016Z,101047.06
2023-03-17T01:12:10.709Z,101043.59
2023-03-17T01:12:23.912Z,101048.84
2023-03-17T01:12:37.248Z,101048.84
2023-03-17T01:12:54.273Z,101050.53
2023-03-17T01:13:07.134Z,101047.06
2023-03-17T01:13:20.106Z,101051.34
2023-03-17T01:13:33.426Z,101054.00
2023-03-17T01:13:46.282Z,101050.66
2023-03-17T01:13:59.373Z,101047.06
2023-03-17T01:14:14.443Z,101045.50
2023-03-17T01:14:26.818Z,101043.81
2023-03-17T01:14:42.179Z,101050.66
2023-03-17T01:14:56.847Z,101046.34
2023-03-17T01:15:13.746Z,101049.81
2023-03-17T01:15:30.013Z,101045.50
2023-03-17T01:15:46.291Z,101049.22
2023-03-17T01:15:58.918Z,101054.34
2023-03-17T01:16:14.625Z,101050.88
2023-03-17T01:16:27.256Z,101050.03
2023-03-17T01:16:40.209Z,101043.09
2023-03-17T01:16:54.295Z,101045.59
2023-03-17T01:17:12.127Z,101043.22
2023-03-17T01:17:27.293Z,101047.66
2023-03-17T01:17:40.591Z,101043.31
2023-03-17T01:17:56.128Z,101048.47
2023-03-17T01:18:16.049Z,101054.47
2023-03-17T01:18:30.417Z,101041.50
2023-03-17T01:18:51.518Z,101043.31
2023-03-17T01:19:04.399Z,101045.13
2023-03-17T01:19:16.922Z,101042.47
2023-03-17T01:19:30.682Z,101040.81
2023-03-17T01:19:45.709Z,101039.84
2023-03-17T01:19:59.195Z,101039.03
2023-03-17T01:20:19.100Z,101042.47
2023-03-17T01:20:35.117Z,101044.28
2023-03-17T01:20:50.650Z,101042.47
2023-03-17T01:21:11.073Z,101039.84
2023-03-17T01:21:33.806Z,101040.81
2023-03-17T01:21:46.016Z,101046.91
2023-03-17T01:21:58.065Z,101041.66
2023-03-17T01:22:12.090Z,101046.91
2023-03-17T01:22:28.972Z,101036.50
2023-03-17T01:22:41.790Z,101045.22
2023-03-17T01:22:56.178Z,101042.59
2023-03-17T01:23:16.721Z,101045.22
2023-03-17T01:23:34.485Z,101039.94
2023-03-17T01:23:48.318Z,101046.91
2023-03-17T01:24:03.989Z,101043.44
2023-03-17T01:24:18.928Z,101044.28
2023-03-17T01:24:36.598Z,101046.09
2023-03-17T01:24:53.854Z,101049.66
2023-03-17T01:25:10.183Z,101042.84
2023-03-17T01:25:23.869Z,101045.22
2023-03-17T01:25:38.393Z,101050.50
2023-03-17T01:25:54.808Z,101047.84
2023-03-17T01:26:07.761Z,101047.84
2023-03-17T01:26:20.964Z,101045.22
2023-03-17T01:26:35.785Z,101049.66
2023-03-17T01:26:51.283Z,101045.34
2023-03-17T01:27:06.510Z,101046.19
2023-03-17T01:27:19.297Z,101048.94
2023-03-17T01:27:35.670Z,101047.13
2023-03-17T01:27:52.062Z,101048.94
2023-03-17T01:28:06.223Z,101047.13
2023-03-17T01:28:19.812Z,101043.66
2023-03-17T01:28:32.154Z,101052.41
2023-03-17T01:28:46.551Z,101043.78
2023-03-17T01:28:59.791Z,101048.22
2023-03-17T01:29:14.591Z,101050.72
2023-03-17T01:29:26.979Z,101040.19
2023-03-17T01:29:39.615Z,101053.38
2023-03-17T01:29:53.693Z,101048.94
2023-03-17T01:30:16.944Z,101044.63
2023-03-17T01:30:32.311Z,101048.09
2023-03-17T01:30:45.867Z,101045.56
2023-03-17T01:31:00.807Z,101046.41
2023-03-17T01:31:15.976Z,101042.94
2023-03-17T01:31:30.572Z,101046.41
2023-03-17T01:31:43.850Z,101048.09
2023-03-17T01:31:56.924Z,101049.03
2023-03-17T01:32:13.643Z,101056.94
2023-03-17T01:32:26.800Z,101049.19
2023-03-17T01:32:39.678Z,101048.22
2023-03-17T01:32:55.084Z,101050.84
2023-03-17T01:33:10.869Z,101047.38
2023-03-17T01:33:23.864Z,101052.63
2023-03-17T01:33:36.458Z,101047.38
2023-03-17T01:33:49.671Z,101049.19
2023-03-17T01:34:08.850Z,101044.00
2023-03-17T01:34:24.930Z,101050.97
2023-03-17T01:34:40.542Z,101044.84
2023-03-17T01:34:54.074Z,101044.84
2023-03-17T01:35:08.949Z,101039.56
2023-03-17T01:35:21.760Z,101044.00
2023-03-17T01:35:34.476Z,101049.28
2023-03-17T01:35:48.444Z,101047.63
2023-03-17T01:36:00.982Z,101044.13
2023-03-17T01:36:13.568Z,101039.81
2023-03-17T01:36:27.455Z,101041.47
2023-03-17T01:36:40.994Z,101050.25
2023-03-17T01:36:54.410Z,101043.28
2023-03-17T01:37:07.374Z,101046.75
2023-03-17T01:37:19.830Z,101046.75
2023-03-17T01:37:33.152Z,101043.28
2023-03-17T01:37:45.782Z,101045.09
2023-03-17T01:37:59.057Z,101043.28
2023-03-17T01:38:22.787Z,101046.75
2023-03-17T01:38:37.669Z,101036.44
2023-03-17T01:38:51.487Z,101040.88
2023-03-17T01:39:06.075Z,101040.88
2023-03-17T01:39:19.994Z,101046.16
2023-03-17T01:39:33.803Z,101043.53
2023-03-17T01:39:53.980Z,101046.16
2023-03-17T01:40:08.645Z,101048.91
2023-03-17T01:40:25.961Z,101051.66
2023-03-17T01:40:44.690Z,101035.97
2023-03-17T01:40:57.203Z,101051.66
2023-03-17T01:41:11.827Z,101049.13
2023-03-17T01:41:24.980Z,101050.94
2023-03-17T01:41:40.244Z,101045.66
2023-03-17T01:41:53.695Z,101050.06
2023-03-17T01:42:09.067Z,101050.81
2023-03-17T01:42:23.242Z,101043.88
2023-03-17T01:42:35.808Z,101049.13
2023-03-17T01:42:51.679Z,101049.97
2023-03-17T01:43:17.626Z,101049.97
2023-03-17T01:43:31.749Z,101049.97
2023-03-17T01:43:45.065Z,101052.59
2023-03-17T01:43:58.788Z,101049.97
2023-03-17T01:44:16.435Z,101049.03
2023-03-17T01:44:31.546Z,101056.06
2023-03-17T01:45:02.989Z,101055.25
2023-03-17T01:45:52.093Z,101049.97
2023-03-17T01:46:35.438Z,101048.16
2023-03-17T01:46:48.069Z,101052.50
2023-03-17T01:47:03.077Z,101049.13
2023-03-17T01:47:17.420Z,101049.25
2023-03-17T01:47:32.738Z,101060.50
2023-03-17T01:47:46.882Z,101059.66
2023-03-17T01:48:00.285Z,101048.31
2023-03-17T01:48:14.152Z,101051.88
2023-03-17T01:48:28.847Z,101052.72
2023-03-17T01:48:45.680Z,101050.22
2023-03-17T01:49:06.870Z,101050.22
2023-03-17T01:49:24.899Z,101059.91
2023-03-17T01:49:39.112Z,101057.28
2023-03-17T01:49:54.974Z,101048.50
2023-03-17T01:50:12.325Z,101060.00
2023-03-17T01:50:28.020Z,101054.75
2023-03-17T01:50:41.976Z,101057.38
2023-03-17T01:50:58.584Z,101055.69
2023-03-17T01:51:18.434Z,101053.19
2023-03-17T01:51:36.970Z,101059.19
2023-03-17T01:51:57.196Z,101058.31
2023-03-17T01:52:18.570Z,101053.06
2023-03-17T01:52:31.703Z,101052.94
2023-03-17T01:52:43.995Z,101051.28
2023-03-17T01:52:59.431Z,101058.22
2023-03-17T01:53:18.181Z,101052.13
2023-03-17T01:53:37.923Z,101052.94
2023-03-17T01:53:52.973Z,101050.41
2023-03-17T01:54:09.306Z,101052.13
2023-03-17T01:54:29.015Z,101052.13
2023-03-17T01:54:45.030Z,101047.78
2023-03-17T01:55:05.583Z,101053.91
2023-03-17T01:55:21.965Z,101042.50
2023-03-17T01:55:36.878Z,101046.13
2023-03-17T01:55:51.684Z,101041.91
2023-03-17T01:56:04.702Z,101043.47
2023-03-17T01:56:21.848Z,101039.28
2023-03-17T01:56:36.134Z,101046.13
2023-03-17T01:56:51.216Z,101038.56
2023-03-17T01:57:12.961Z,101038.44
2023-03-17T01:57:31.138Z,101044.44
2023-03-17T01:57:47.868Z,101044.56
2023-03-17T01:58:00.834Z,101041.91
2023-03-17T01:58:16.760Z,101041.09
2023-03-17T01:58:29.027Z,101047.28
2023-03-17T01:58:48.835Z,101049.94
2023-03-17T01:59:06.655Z,101047.28
2023-03-17T01:59:25.122Z,101046.34
2023-03-17T01:59:47.336Z,101048.25
2023-03-17T02:00:03.119Z,101044.75
2023-03-17T02:00:29.318Z,101041.28
2023-03-17T02:00:42.040Z,101050.03
2023-03-17T02:00:55.158Z,101048.38
2023-03-17T02:01:07.969Z,101043.19
2023-03-17T02:01:26.690Z,101042.25
2023-03-17T02:01:47.877Z,101047.53
2023-03-17T02:02:07.143Z,101038.06
2023-03-17T02:02:24.537Z,101041.53
2023-03-17T02:02:43.161Z,101050.38
2023-03-17T02:02:58.935Z,101038.91
2023-03-17T02:03:11.795Z,101044.28
2023-03-17T02:03:24.677Z,101043.44
2023-03-17T02:03:39.551Z,101050.38
2023-03-17T02:03:53.188Z,101049.53
2023-03-17T02:04:11.042Z,101046.06
2023-03-17T02:04:25.726Z,101044.28
2023-03-17T02:04:39.994Z,101043.53
2023-03-17T02:04:52.872Z,101039.84
2023-03-17T02:05:14.571Z,101034.69
2023-03-17T02:05:31.133Z,101041.78
2023-03-17T02:05:45.590Z,101047.03
2023-03-17T02:05:58.852Z,101045.22
2023-03-17T02:06:13.224Z,101044.50
2023-03-17T02:06:26.500Z,101047.03
2023-03-17T02:06:56.700Z,101044.50
2023-03-17T02:07:12.284Z,101046.31
2023-03-17T02:07:32.115Z,101047.25
2023-03-17T02:07:45.000Z,101041.16
2023-03-17T02:07:58.623Z,101047.25
2023-03-17T02:08:16.494Z,101040.31
2023-03-17T02:08:30.112Z,101041.38
2023-03-17T02:08:47.334Z,101048.31
2023-03-17T02:09:01.978Z,101047.47
2023-03-17T02:09:17.248Z,101044.84
2023-03-17T02:09:29.997Z,101044.94
2023-03-17T02:09:42.110Z,101038.75
2023-03-17T02:09:57.468Z,101046.75
2023-03-17T02:10:10.851Z,101040.75
2023-03-17T02:10:27.638Z,101046.84
2023-03-17T02:10:41.144Z,101049.47
2023-03-17T02:10:56.044Z,101046.13
2023-03-17T02:11:09.222Z,101041.72
2023-03-17T02:11:21.909Z,101051.28
2023-03-17T02:11:37.344Z,101042.66
2023-03-17T02:11:51.648Z,101051.28
2023-03-17T02:12:06.755Z,101053.19
2023-03-17T02:12:22.318Z,101051.53
2023-03-17T02:12:36.474Z,101053.28
2023-03-17T02:12:53.821Z,101056.78
2023-03-17T02:13:07.646Z,101055.81
2023-03-17T02:13:22.107Z,101055.91
2023-03-17T02:13:39.578Z,101061.31
2023-03-17T02:13:53.040Z,101056.88
2023-03-17T02:14:09.953Z,101065.75
2023-03-17T02:14:23.422Z,101066.59
2023-03-17T02:14:36.021Z,101064.88
2023-03-17T02:14:56.771Z,101073.66
2023-03-17T02:15:12.284Z,101063.22
2023-03-17T02:15:25.192Z,101071.94
2023-03-17T02:15:39.471Z,101069.41
2023-03-17T02:15:53.853Z,101074.59
2023-03-17T02:16:10.026Z,101071.13
2023-03-17T02:16:23.812Z,101068.59
2023-03-17T02:16:40.129Z,101068.59
2023-03-17T02:16:53.474Z,101069.56
2023-03-17T02:17:07.045Z,101074.81
2023-03-17T02:17:21.220Z,101067.03
2023-03-17T02:17:33.774Z,101071.44
2023-03-17T02:17:51.997Z,101074.09
2023-03-17T02:18:05.811Z,101073.25
2023-03-17T02:18:24.694Z,101078.63
2023-03-17T02:18:37.955Z,101067.34
2023-03-17T02:18:52.692Z,101066.53
2023-03-17T02:19:06.064Z,101064.81
2023-03-17T02:19:18.882Z,101064.00
2023-03-17T02:19:31.709Z,101074.50
2023-03-17T02:19:44.062Z,101075.47
2023-03-17T02:19:56.761Z,101073.78
2023-03-17T02:20:45.278Z,101072.94
2023-03-17T02:21:28.943Z,101077.63
2023-03-17T02:21:45.086Z,101075.91
2023-03-17T02:22:00.405Z,101085.59
2023-03-17T02:22:14.499Z,101070.75
2023-03-17T02:22:31.494Z,101077.72
2023-03-17T02:22:44.953Z,101086.44
2023-03-17T02:23:01.069Z,101090.88
2023-03-17T02:23:16.981Z,101078.66
2023-03-17T02:23:31.166Z,101083.91
2023-03-17T02:23:44.060Z,101084.03
2023-03-17T02:23:57.098Z,101082.25
2023-03-17T02:24:16.232Z,101079.63
2023-03-17T02:24:33.249Z,101086.66
2023-03-17T02:24:50.850Z,101084.88
2023-03-17T02:25:04.639Z,101088.44
2023-03-17T02:25:20.898Z,101085.81
2023-03-17T02:25:36.281Z,101089.31
2023-03-17T02:25:52.389Z,101087.72
2023-03-17T02:26:11.721Z,101097.19
2023-03-17T02:26:25.874Z,101090.22
2023-03-17T02:26:38.691Z,101085.81
2023-03-17T02:26:55.162Z,101087.59
2023-03-17T02:27:12.801Z,101090.22
2023-03-17T02:27:30.510Z,101084.97
2023-03-17T02:27:45.318Z,101089.41
2023-03-17T02:28:01.725Z,101091.06
2023-03-17T02:28:23.038Z,101094.66
2023-03-17T02:28:36.197Z,101096.34
2023-03-17T02:28:52.856Z,101091.94
2023-03-17T02:29:08.486Z,101088.56
2023-03-17T02:29:24.064Z,101095.50
2023-03-17T02:29:37.842Z,101091.06
2023-03-17T02:29:51.835Z,101095.41
2023-03-17T02:30:08.981Z,101098.03
2023-03-17T02:30:25.028Z,101095.31
2023-03-17T02:30:39.510Z,101103.19
2023-03-17T02:30:52.561Z,101096.13
2023-03-17T02:31:05.576Z,101097.94
2023-03-17T02:31:19.888Z,101096.22
2023-03-17T02:31:32.031Z,101104.13
2023-03-17T02:31:44.848Z,101099.09
2023-03-17T02:31:57.432Z,101108.56
2023-03-17T02:32:12.130Z,101099.84
2023-03-17T02:32:24.692Z,101105.94
2023-03-17T02:32:38.055Z,101096.47
2023-03-17T02:32:52.154Z,101101.59
2023-03-17T02:33:09.262Z,101103.41
2023-03-17T02:33:24.002Z,101101.59
2023-03-17T02:33:43.905Z,101099.94
2023-03-17T02:33:58.048Z,101100.66
2023-03-17T02:34:11.134Z,101103.28
2023-03-17T02:34:23.513Z,101104.13
2023-03-17T02:34:37.132Z,101100.66
2023-03-17T02:34:50.804Z,101104.97
2023-03-17T02:35:04.003Z,101104.13
2023-03-17T02:35:22.680Z,101103.28
2023-03-17T02:35:35.084Z,101101.50
2023-03-17T02:35:47.875Z,101097.94
2023-03-17T02:36:01.786Z,101105.81
2023-03-17T02:36:17.634Z,101104.03
2023-03-17T02:36:38.556Z,101098.53
2023-03-17T02:36:50.836Z,101097.69
2023-03-17T02:37:03.748Z,101091.47
2023-03-17T02:37:17.338Z,101094.97
2023-03-17T02:37:47.832Z,101092.44
2023-03-17T02:38:01.853Z,101093.19
2023-03-17T02:38:15.872Z,101094.97
2023-03-17T02:38:28.210Z,101093.19
2023-03-17T02:38:40.726Z,101100.25
2023-03-17T02:38:53.283Z,101094.84
2023-03-17T02:39:06.858Z,101094.97
2023-03-17T02:39:19.639Z,101092.34
2023-03-17T02:39:35.501Z,101088.84
2023-03-17T02:39:51.579Z,101086.66
2023-03-17T02:40:07.052Z,101099.38
2023-03-17T02:40:26.355Z,101088.84
2023-03-17T02:40:45.491Z,101090.88
2023-03-17T02:40:58.053Z,101097.59
2023-03-17T02:41:16.549Z,101100.25
2023-03-17T02:41:31.773Z,101099.38
2023-03-17T02:41:46.000Z,101096.75
2023-03-17T02:41:59.123Z,101098.66
2023-03-17T02:42:12.702Z,101092.44
2023-03-17T02:42:25.385Z,101097.59
2023-03-17T02:42:40.635Z,101096.75
2023-03-17T02:42:56.840Z,101095.91
2023-03-17T02:43:14.816Z,101092.53
2023-03-17T02:43:29.021Z,101096.88
2023-03-17T02:43:42.358Z,101096.88
2023-03-17T02:43:55.740Z,101098.66
2023-03-17T02:44:13.191Z,101095.16
2023-03-17T02:44:26.110Z,101100.44
2023-03-17T02:44:39.625Z,101099.69
2023-03-17T02:44:55.866Z,101090.03
2023-03-17T02:45:11.405Z,101096.13
2023-03-17T02:45:28.324Z,101096.22
2023-03-17T02:45:48.064Z,101087.41
2023-03-17T02:46:02.614Z,101091.81
2023-03-17T02:46:18.703Z,101090.97
2023-03-17T02:46:34.934Z,101090.97
2023-03-17T02:46:47.745Z,101083.91
2023-03-17T02:47:00.923Z,101084.88
2023-03-17T02:47:17.923Z,101087.50
2023-03-17T02:47:35.460Z,101084.88
2023-03-17T02:47:50.019Z,101088.44
2023-03-17T02:48:04.238Z,101084.13
2023-03-17T02:48:19.144Z,101081.50
2023-03-17T02:48:35.944Z,101080.53
2023-03-17T02:48:52.252Z,101085.81
2023-03-17T02:49:09.096Z,101084.13
2023-03-17T02:49:31.229Z,101084.25
2023-03-17T02:49:47.908Z,101087.72
2023-03-17T02:50:00.703Z,101085.09
2023-03-17T02:50:19.087Z,101076.66
2023-03-17T02:50:31.963Z,101083.50
2023-03-17T02:50:50.362Z,101089.63
2023-03-17T02:51:05.996Z,101084.38
2023-03-17T02:51:19.730Z,101079.22
2023-03-17T02:51:34.151Z,101083.50
2023-03-17T02:51:46.724Z,101081.84
2023-03-17T02:52:00.399Z,101084.47
2023-03-17T02:52:12.748Z,101085.31
2023-03-17T02:52:25.818Z,101084.56
2023-03-17T02:52:39.073Z,101085.44
2023-03-17T02:52:51.904Z,101088.16
2023-03-17T02:53:04.440Z,101080.28
2023-03-17T02:53:18.272Z,101081.94
2023-03-17T02:53:30.686Z,101077.63
2023-03-17T02:53:43.863Z,101078.69
2023-03-17T02:53:59.451Z,101079.44
2023-03-17T02:54:12.256Z,101083.84
2023-03-17T02:54:24.301Z,101078.56
2023-03-17T02:54:40.685Z,101090.06
2023-03-17T02:54:54.945Z,101087.44
2023-03-17T02:55:08.965Z,101088.41
2023-03-17T02:55:23.482Z,101089.22
2023-03-17T02:55:39.355Z,101083.13
2023-03-17T02:55:56.777Z,101094.50
2023-03-17T02:56:17.264Z,101090.06
2023-03-17T02:56:30.202Z,101091.97
2023-03-17T02:56:43.814Z,101088.50
2023-03-17T02:56:56.886Z,101091.03
2023-03-17T02:57:14.210Z,101091.97
2023-03-17T02:57:34.169Z,101086.78
2023-03-17T02:57:47.171Z,101090.28
2023-03-17T02:58:00.360Z,101087.75